Time;durP1;ratioP1;P1;durP2;ratioP2;P2;SDS_P1;SDS_P2;PMS_P1;PMS_P2;Temp;Humidity;BMP_temperature;BMP_pressure;BME280_temperature;BME280_humidity;BME280_pressure;Samples;Min_cycle;Max_cycle;Signal;HPM_P1;HPM_P2
2021/04/28 00:00:39;;;;;;;13.98;8.88;;;;;;;12.63;54.46;99687.75;5046521;28;20034;-22
2021/04/28 00:03:06;;;;;;;15.27;8.40;;;;;;;12.60;54.61;99688.22;5046475;28;20032;-22
2021/04/28 00:05:32;;;;;;;14.95;8.85;;;;;;;12.49;54.73;99683.78;5049353;28;20029;-22
2021/04/28 00:07:57;;;;;;;14.65;8.40;;;;;;;12.20;55.57;99694.47;5050239;28;20029;-20
2021/04/28 00:10:28;;;;;;;13.10;9.20;;;;;;;12.19;56.41;99692.84;5050443;28;20055;-21
2021/04/28 00:12:54;;;;;;;12.77;8.50;;;;;;;12.46;55.25;99693.91;5050238;28;20024;-22
2021/04/28 00:15:22;;;;;;;14.57;8.90;;;;;;;12.15;56.04;99691.69;5048831;28;20032;-22
2021/04/28 00:17:50;;;;;;;14.63;9.77;;;;;;;11.97;56.32;99695.34;5048990;28;20075;-22
2021/04/28 00:20:15;;;;;;;14.53;9.67;;;;;;;11.98;55.93;99680.97;5049437;28;20028;-22
2021/04/28 00:22:41;;;;;;;13.75;9.55;;;;;;;11.73;56.36;99671.34;5049788;28;20032;-22
2021/04/28 00:25:11;;;;;;;15.68;9.57;;;;;;;11.83;55.67;99652.84;5049970;28;20071;-21
2021/04/28 00:27:37;;;;;;;13.02;9.43;;;;;;;11.94;56.37;99685.97;5049982;28;20025;-21
2021/04/28 00:30:07;;;;;;;14.02;9.85;;;;;;;12.13;55.67;99683.09;5050010;28;20118;-22
2021/04/28 00:32:33;;;;;;;16.45;9.68;;;;;;;12.41;54.49;99685.78;5049484;28;20021;-21
2021/04/28 00:34:59;;;;;;;16.92;10.55;;;;;;;12.13;55.74;99688.44;5049730;28;20382;-22
2021/04/28 00:37:24;;;;;;;15.98;10.00;;;;;;;12.17;55.34;99673.56;5050012;28;20066;-21
2021/04/28 00:39:50;;;;;;;16.73;10.10;;;;;;;12.13;55.53;99683.09;5050039;28;20783;-23
2021/04/28 00:42:16;;;;;;;14.52;10.05;;;;;;;11.99;55.62;99666.53;5049598;28;20025;-22
2021/04/28 00:44:42;;;;;;;16.98;10.18;;;;;;;12.30;55.10;99677.78;5049673;28;20043;-23
2021/04/28 00:47:07;;;;;;;17.17;10.80;;;;;;;11.98;55.59;99678.28;5031936;28;20891;-21
2021/04/28 00:49:33;;;;;;;17.20;10.40;;;;;;;12.17;56.32;99697.63;5047917;28;20057;-21
2021/04/28 00:51:58;;;;;;;15.10;11.35;;;;;;;12.35;55.38;99697.44;5049510;28;20131;-22
2021/04/28 00:54:24;;;;;;;17.30;11.50;;;;;;;12.18;55.50;99699.25;5048149;28;20037;-22
2021/04/28 00:56:50;;;;;;;18.08;11.05;;;;;;;12.01;55.72;99685.81;5048040;28;20044;-22
2021/04/28 00:59:15;;;;;;;18.85;10.95;;;;;;;12.23;54.56;99667.25;5031491;28;20541;-23
2021/04/28 01:01:41;;;;;;;18.77;11.43;;;;;;;11.88;55.65;99700.22;5047945;28;20032;-22
2021/04/28 01:04:06;;;;;;;17.80;11.07;;;;;;;12.04;55.81;99699.53;5049625;28;20036;-23
2021/04/28 01:06:32;;;;;;;17.13;11.60;;;;;;;12.11;55.45;99706.59;5049128;28;20025;-22
2021/04/28 01:08:58;;;;;;;17.83;11.43;;;;;;;11.84;56.51;99707.09;5049198;28;20029;-22
2021/04/28 01:11:24;;;;;;;20.63;12.20;;;;;;;11.83;56.39;99710.84;5047852;28;20045;-22
2021/04/28 01:13:50;;;;;;;18.33;12.32;;;;;;;11.94;55.84;99703.84;5048232;28;20080;-21
2021/04/28 01:16:15;;;;;;;18.92;12.32;;;;;;;12.03;55.67;99711.28;5030813;28;20029;-22
2021/04/28 01:18:41;;;;;;;19.33;12.40;;;;;;;11.82;56.27;99714.53;5031002;28;20037;-22
2021/04/28 01:21:06;;;;;;;22.33;12.55;;;;;;;11.38;57.52;99714.09;5047651;28;20465;-21
2021/04/28 01:23:32;;;;;;;18.25;11.65;;;;;;;11.49;57.50;99699.94;5048971;28;20107;-22
2021/04/28 01:25:57;;;;;;;17.77;12.63;;;;;;;11.49;56.82;99688.47;5048764;28;20044;-22
2021/04/28 01:28:23;;;;;;;21.60;12.98;;;;;;;10.85;59.10;99681.94;5031093;28;20485;-23
2021/04/28 01:30:53;;;;;;;17.90;12.63;;;;;;;10.83;59.56;99680.56;5048242;28;20072;-22
2021/04/28 01:33:25;;;;;;;20.30;13.25;;;;;;;10.74;59.83;99685.41;5031225;28;20033;-22
2021/04/28 01:35:55;;;;;;;20.38;14.18;;;;;;;10.72;60.07;99684.81;5048881;28;20567;-22
2021/04/28 01:38:21;;;;;;;23.08;13.45;;;;;;;10.60;60.35;99675.97;5047359;28;20036;-21
2021/04/28 01:40:47;;;;;;;20.40;13.93;;;;;;;10.48;61.03;99683.13;5030454;28;20025;-21
2021/04/28 01:43:12;;;;;;;22.52;14.25;;;;;;;10.30;61.40;99654.69;5030836;28;20061;-22
2021/04/28 01:45:38;;;;;;;24.10;13.90;;;;;;;10.59;61.21;99674.38;5030658;28;20803;-22
2021/04/28 01:48:04;;;;;;;22.00;14.43;;;;;;;10.53;61.09;99684.09;5047162;28;20044;-22
2021/04/28 01:50:29;;;;;;;20.65;15.05;;;;;;;10.38;61.23;99673.84;5046966;28;20103;-21
2021/04/28 01:52:55;;;;;;;23.63;14.27;;;;;;;10.48;61.98;99699.13;5013901;28;20029;-22
2021/04/28 01:55:20;;;;;;;24.48;15.02;;;;;;;10.53;61.84;99685.94;5047049;28;20390;-22
2021/04/28 01:57:46;;;;;;;25.90;14.93;;;;;;;10.52;61.97;99694.97;5046827;28;20086;-22
2021/04/28 02:00:12;;;;;;;22.70;15.18;;;;;;;10.40;61.91;99677.09;5046677;28;20484;-22
2021/04/28 02:02:38;;;;;;;22.40;15.32;;;;;;;10.23;63.14;99687.53;5047727;28;20029;-22
2021/04/28 02:05:05;;;;;;;21.95;14.40;;;;;;;10.32;63.52;99690.75;5048143;28;20059;-22
2021/04/28 02:07:30;;;;;;;24.02;15.43;;;;;;;10.19;64.20;99661.56;5048133;28;20568;-22
2021/04/28 02:09:56;;;;;;;31.70;16.05;;;;;;;10.23;64.91;99686.72;5046601;28;20124;-21
2021/04/28 02:12:21;;;;;;;23.75;14.88;;;;;;;10.39;64.16;99662.13;5047867;28;20032;-22
2021/04/28 02:14:49;;;;;;;24.98;15.18;;;;;;;10.50;64.57;99683.72;5047592;28;20417;-22
2021/04/28 02:17:14;;;;;;;25.23;15.50;;;;;;;10.28;65.88;99684.22;5030460;28;20029;-22
2021/04/28 02:19:39;;;;;;;25.20;16.10;;;;;;;10.12;66.68;99684.84;5029932;28;20835;-22
2021/04/28 02:22:05;;;;;;;25.65;15.75;;;;;;;10.12;66.86;99679.50;5029922;28;20504;-21
2021/04/28 02:24:30;;;;;;;24.58;15.30;;;;;;;10.20;66.76;99687.19;5046509;28;20027;-21
2021/04/28 02:26:57;;;;;;;23.15;15.13;;;;;;;10.16;67.38;99686.03;5047415;28;20033;-22
2021/04/28 02:29:22;;;;;;;26.27;16.02;;;;;;;10.56;65.80;99680.13;5046715;28;20033;-21
2021/04/28 02:31:48;;;;;;;26.67;15.55;;;;;;;10.34;66.71;99693.16;5048016;28;20028;-20
2021/04/28 02:34:14;;;;;;;24.95;16.48;;;;;;;10.26;66.89;99675.63;5047786;28;20137;-22
2021/04/28 02:36:41;;;;;;;26.77;17.10;;;;;;;10.24;67.99;99688.38;5047536;28;20046;-22
2021/04/28 02:39:14;;;;;;;27.88;16.20;;;;;;;10.37;67.45;99666.88;5030090;28;20065;-22
2021/04/28 02:41:43;;;;;;;27.90;15.57;;;;;;;10.68;66.75;99682.84;5047481;28;20039;-21
2021/04/28 02:44:10;;;;;;;24.90;15.57;;;;;;;10.44;68.49;99693.44;5046167;28;20048;-22
2021/04/28 02:46:35;;;;;;;24.30;16.17;;;;;;;10.54;68.69;99698.22;5029663;28;20163;-22
2021/04/28 02:49:01;;;;;;;24.95;16.08;;;;;;;10.54;68.15;99695.56;5046014;28;20072;-21
2021/04/28 02:51:28;;;;;;;23.60;14.68;;;;;;;10.60;68.46;99697.31;5046002;28;20850;-22
2021/04/28 02:53:54;;;;;;;28.60;16.67;;;;;;;10.87;67.55;99708.41;5029753;28;20041;-22
2021/04/28 02:56:19;;;;;;;23.63;15.68;;;;;;;10.69;67.93;99703.97;5046105;28;20036;-22
2021/04/28 02:58:45;;;;;;;24.20;14.38;;;;;;;10.70;68.08;99712.75;5045780;28;20033;-20
2021/04/28 03:01:10;;;;;;;25.92;15.50;;;;;;;10.60;68.23;99707.97;5047486;28;20025;-22
2021/04/28 03:03:39;;;;;;;22.25;15.23;;;;;;;11.05;66.57;99710.97;5029276;28;20025;-22
2021/04/28 03:06:04;;;;;;;;;;;;;;;10.89;67.53;99722.31;5047036;28;20037;-22
2021/04/28 03:08:30;;;;;;;26.77;15.88;;;;;;;10.76;67.73;99728.66;5045669;28;19912;-22
2021/04/28 03:10:55;;;;;;;26.23;17.42;;;;;;;10.60;68.55;99726.63;5045524;28;20037;-22
2021/04/28 03:13:20;;;;;;;30.65;18.35;;;;;;;10.77;67.71;99724.97;5045897;28;20485;-22
2021/04/28 03:15:48;;;;;;;29.92;19.52;;;;;;;10.49;68.32;99730.09;5045741;28;20039;-22
2021/04/28 03:18:14;;;;;;;63.03;39.08;;;;;;;10.42;69.13;99747.00;5047033;28;20139;-22
2021/04/28 03:20:40;;;;;;;28.23;18.65;;;;;;;10.47;68.91;99753.50;5045427;28;20115;-21
2021/04/28 03:23:07;;;;;;;200.13;131.18;;;;;;;10.70;68.09;99753.56;5027959;28;20029;-22
2021/04/28 03:25:32;;;;;;;38.55;24.35;;;;;;;10.81;67.66;99763.47;5045539;28;20054;-22
2021/04/28 03:27:59;;;;;;;28.45;16.23;;;;;;;10.70;67.78;99758.09;5047032;28;20059;-22
2021/04/28 03:30:24;;;;;;;65.88;50.65;;;;;;;10.75;67.23;99764.38;5047033;28;20029;-22
2021/04/28 03:32:50;;;;;;;40.42;31.73;;;;;;;10.60;67.14;99740.81;5046595;28;20025;-22
2021/04/28 03:35:15;;;;;;;41.47;29.15;;;;;;;10.68;67.20;99754.84;5046828;28;20052;-22
2021/04/28 03:37:41;;;;;;;38.13;29.52;;;;;;;10.83;66.98;99771.25;5046855;28;20398;-21
2021/04/28 03:40:07;;;;;;;44.38;37.75;;;;;;;10.79;67.01;99770.91;5049097;28;20033;-21
2021/04/28 03:42:32;;;;;;;31.23;21.30;;;;;;;10.67;67.24;99764.72;5049446;28;20827;-22
2021/04/28 03:44:58;;;;;;;41.80;30.35;;;;;;;10.41;68.29;99757.88;5050806;28;20033;-22
2021/04/28 03:47:23;;;;;;;27.27;19.33;;;;;;;10.73;67.14;99769.13;5050897;28;20078;-22
2021/04/28 03:49:49;;;;;;;32.15;21.75;;;;;;;10.64;67.36;99763.31;5050500;28;20523;-22
2021/04/28 03:52:14;;;;;;;24.80;18.25;;;;;;;10.54;67.19;99754.22;5050419;28;20034;-22
2021/04/28 03:54:40;;;;;;;29.45;21.02;;;;;;;10.36;68.59;99771.06;5050131;28;20036;-22
2021/04/28 03:57:06;;;;;;;31.77;22.75;;;;;;;10.35;68.45;99756.09;5050611;28;20033;-22
2021/04/28 03:59:32;;;;;;;19.75;12.90;;;;;;;10.54;67.64;99762.22;5050401;28;20033;-23
2021/04/28 04:01:58;;;;;;;25.30;19.77;;;;;;;10.40;68.58;99778.41;5050249;28;20032;-21
2021/04/28 04:04:23;;;;;;;23.55;13.32;;;;;;;10.19;69.11;99778.81;5050530;28;20046;-22
2021/04/28 04:06:49;;;;;;;24.65;16.85;;;;;;;9.99;70.41;99787.88;5050048;28;20067;-22
2021/04/28 04:09:14;;;;;;;21.83;13.52;;;;;;;10.13;69.64;99766.38;5048922;28;20025;-22
2021/04/28 04:11:40;;;;;;;23.40;14.43;;;;;;;10.24;70.00;99794.97;5050240;28;20428;-22
2021/04/28 04:14:05;;;;;;;25.33;16.92;;;;;;;9.87;71.63;99797.63;5050299;28;20095;-21
2021/04/28 04:16:31;;;;;;;19.52;13.48;;;;;;;9.85;72.16;99803.16;5050379;28;20040;-22
2021/04/28 04:18:56;;;;;;;31.38;16.42;;;;;;;9.98;71.72;99804.88;5049413;28;20029;-22
2021/04/28 04:21:22;;;;;;;22.85;16.35;;;;;;;10.28;70.89;99814.81;5050005;28;20489;-21
2021/04/28 04:23:47;;;;;;;24.85;19.05;;;;;;;10.46;70.41;99829.97;5050034;28;20032;-20
2021/04/28 04:26:14;;;;;;;21.80;15.32;;;;;;;10.51;70.44;99822.13;5050032;28;20040;-22
2021/04/28 04:28:39;;;;;;;23.63;15.68;;;;;;;10.59;70.09;99829.03;5049831;28;20110;-22
2021/04/28 04:31:05;;;;;;;22.17;14.02;;;;;;;10.57;69.83;99836.44;5049809;28;20405;-21
2021/04/28 04:33:30;;;;;;;23.35;13.13;;;;;;;10.62;69.59;99844.56;5049951;28;20040;-23
2021/04/28 04:35:56;;;;;;;20.15;13.88;;;;;;;10.74;69.28;99853.44;5048341;28;20033;-22
2021/04/28 04:38:21;;;;;;;21.55;13.15;;;;;;;10.89;68.96;99850.38;5049673;28;20033;-22
2021/04/28 04:40:47;;;;;;;21.17;13.00;;;;;;;10.98;68.61;99856.22;5049856;28;20043;-22
2021/04/28 04:43:12;;;;;;;23.48;14.02;;;;;;;10.97;68.79;99857.22;5049752;28;20033;-21
2021/04/28 04:45:38;;;;;;;23.35;13.30;;;;;;;10.84;69.08;99831.56;5049779;28;20421;-22
2021/04/28 04:48:05;;;;;;;19.02;12.35;;;;;;;10.92;68.70;99828.56;5049479;28;20037;-21
2021/04/28 04:50:30;;;;;;;22.73;12.35;;;;;;;11.01;68.53;99850.41;5048666;28;20107;-22
2021/04/28 04:52:56;;;;;;;17.73;12.85;;;;;;;11.06;68.50;99853.22;5048904;28;20048;-21
2021/04/28 04:55:22;;;;;;;22.92;14.07;;;;;;;11.16;67.85;99834.81;5049759;28;20036;-21
2021/04/28 04:57:51;;;;;;;18.63;12.48;;;;;;;10.92;68.99;99854.44;5049473;28;20025;-21
2021/04/28 05:00:17;;;;;;;21.02;11.98;;;;;;;10.88;69.11;99867.41;5049232;28;20090;-21
2021/04/28 05:02:42;;;;;;;21.48;11.75;;;;;;;10.88;69.02;99859.41;5049226;28;20116;-21
2021/04/28 05:05:09;;;;;;;18.92;11.70;;;;;;;10.74;69.91;99874.75;5049368;28;20033;-21
2021/04/28 05:07:34;;;;;;;21.27;12.40;;;;;;;10.80;70.03;99879.22;5049045;28;20401;-21
2021/04/28 05:10:00;;;;;;;21.45;11.82;;;;;;;10.98;69.37;99886.38;5049253;28;20473;-21
2021/04/28 05:12:25;;;;;;;17.73;12.20;;;;;;;11.12;69.24;99875.53;5049346;28;20103;-22
2021/04/28 05:14:51;;;;;;;21.30;12.13;;;;;;;11.14;68.69;99876.13;5048975;28;20095;-21
2021/04/28 05:17:16;;;;;;;27.67;17.98;;;;;;;11.55;67.37;99880.63;5047623;28;20025;-21
2021/04/28 05:19:42;;;;;;;22.55;12.30;;;;;;;11.45;68.05;99891.03;5048990;28;20416;-21
2021/04/28 05:22:07;;;;;;;17.80;11.68;;;;;;;11.37;68.14;99888.72;5048663;28;20029;-22
2021/04/28 05:24:33;;;;;;;20.73;12.70;;;;;;;11.64;67.35;99889.09;5048737;28;20033;-21
2021/04/28 05:26:58;;;;;;;20.10;12.20;;;;;;;11.80;66.55;99898.31;5049032;28;20051;-21
2021/04/28 05:29:23;;;;;;;21.27;12.45;;;;;;;11.91;65.97;99900.22;5048831;28;20024;-22
2021/04/28 05:31:49;;;;;;;19.55;12.07;;;;;;;11.91;66.66;99897.53;5048764;28;20033;-22
2021/04/28 05:34:14;;;;;;;18.67;11.73;;;;;;;12.11;65.41;99907.06;5048438;28;20040;-23
2021/04/28 05:36:40;;;;;;;17.60;10.98;;;;;;;12.22;65.56;99907.06;5048597;28;20455;-21
2021/04/28 05:39:05;;;;;;;21.75;12.38;;;;;;;12.33;64.64;99897.41;5048993;28;20046;-22
2021/04/28 05:41:31;;;;;;;21.60;11.63;;;;;;;12.30;64.66;99908.56;5048570;28;20116;-23
2021/04/28 05:43:57;;;;;;;18.75;12.10;;;;;;;12.56;64.58;99914.47;5048536;28;20098;-21
2021/04/28 05:46:23;;;;;;;16.88;11.23;;;;;;;11.91;65.21;99884.19;5048669;28;20136;-22
2021/04/28 05:48:48;;;;;;;17.35;11.65;;;;;;;12.35;65.08;99906.00;5046799;28;20079;-22
2021/04/28 05:51:14;;;;;;;17.27;12.80;;;;;;;12.23;65.37;99908.69;5048327;28;20425;-22
2021/04/28 05:53:39;;;;;;;25.23;15.10;;;;;;;12.29;65.34;99908.81;5048304;28;20033;-22
2021/04/28 05:56:06;;;;;;;30.75;16.42;;;;;;;12.56;64.32;99895.72;5047147;28;20029;-22
2021/04/28 05:58:31;;;;;;;30.33;15.70;;;;;;;12.43;64.73;99902.97;5047853;28;20386;-21
2021/04/28 06:00:57;;;;;;;32.88;17.80;;;;;;;12.44;64.90;99909.97;5048187;28;20035;-22
2021/04/28 06:03:22;;;;;;;22.63;14.25;;;;;;;12.49;64.70;99916.47;5048013;28;20029;-21
2021/04/28 06:05:48;;;;;;;28.95;16.52;;;;;;;12.76;64.13;99917.56;5046724;28;20024;-22
2021/04/28 06:08:13;;;;;;;24.63;13.88;;;;;;;12.92;63.57;99913.31;5048224;28;20484;-22
2021/04/28 06:10:40;;;;;;;14.55;11.15;;;;;;;13.21;63.10;99913.31;5046711;28;20037;-22
2021/04/28 06:13:06;;;;;;;19.33;11.70;;;;;;;13.44;62.55;99891.00;5048059;28;20061;-22
2021/04/28 06:15:31;;;;;;;18.58;10.20;;;;;;;13.67;62.09;99900.78;5046752;28;20454;-21
2021/04/28 06:17:56;;;;;;;16.60;10.32;;;;;;;13.12;62.72;99914.75;5047844;28;20033;-22
2021/04/28 06:20:22;;;;;;;16.88;10.68;;;;;;;13.28;62.61;99903.28;5047613;28;20039;-21
2021/04/28 06:22:47;;;;;;;20.30;11.02;;;;;;;13.55;61.97;99919.59;5047697;28;20040;-21
2021/04/28 06:25:14;;;;;;;17.17;11.55;;;;;;;13.32;62.34;99919.72;5048247;28;20032;-21
2021/04/28 06:27:39;;;;;;;18.25;10.25;;;;;;;13.17;62.38;99891.56;5047849;28;20098;-23
2021/04/28 06:30:05;;;;;;;18.48;11.15;;;;;;;13.54;61.77;99907.25;5047730;28;20493;-22
2021/04/28 06:32:31;;;;;;;15.18;9.88;;;;;;;14.26;60.66;99913.69;5047321;28;20123;-19
2021/04/28 06:34:56;;;;;;;18.42;10.85;;;;;;;14.16;59.64;99913.56;5047345;28;20162;-22
2021/04/28 06:37:22;;;;;;;16.17;10.60;;;;;;;13.82;60.85;99910.91;5047344;28;20041;-22
2021/04/28 06:39:48;;;;;;;18.13;10.68;;;;;;;13.57;62.46;99909.44;5047532;28;20028;-22
2021/04/28 06:42:14;;;;;;;17.83;10.15;;;;;;;13.76;61.19;99919.94;5047275;28;20036;-22
2021/04/28 06:44:39;;;;;;;14.80;9.90;;;;;;;13.64;61.02;99923.47;5047052;28;20026;-22
2021/04/28 06:47:05;;;;;;;16.05;10.15;;;;;;;13.83;60.02;99923.25;5047484;28;20033;-22
2021/04/28 06:49:30;;;;;;;15.60;9.50;;;;;;;13.81;60.05;99917.31;5047198;28;20052;-22
2021/04/28 06:51:56;;;;;;;14.07;9.60;;;;;;;14.03;60.22;99926.25;5047151;28;20028;-22
2021/04/28 06:54:21;;;;;;;15.20;9.82;;;;;;;14.07;59.71;99923.91;5047625;28;20036;-22
2021/04/28 06:56:47;;;;;;;14.95;9.13;;;;;;;14.25;58.71;99933.56;5047602;28;20400;-22
2021/04/28 06:59:18;;;;;;;16.90;9.50;;;;;;;13.92;59.90;99908.41;5047071;28;20040;-21
2021/04/28 07:01:45;;;;;;;15.65;9.02;;;;;;;14.26;60.01;99936.00;5047166;28;20033;-21
2021/04/28 07:04:11;;;;;;;12.90;8.63;;;;;;;14.29;58.96;99934.69;5045608;28;20477;-21
2021/04/28 07:06:37;;;;;;;12.23;8.88;;;;;;;14.33;59.45;99937.69;5047327;28;20573;-22
2021/04/28 07:09:05;;;;;;;13.10;8.90;;;;;;;14.84;57.98;99930.34;5047368;28;20134;-22
2021/04/28 07:11:32;;;;;;;16.23;9.43;;;;;;;15.02;57.59;99943.44;5047178;28;20032;-21
2021/04/28 07:13:58;;;;;;;16.83;10.05;;;;;;;14.87;56.64;99945.94;5046834;28;20037;-21
2021/04/28 07:16:23;;;;;;;18.00;8.90;;;;;;;14.93;56.92;99950.31;5047048;28;20856;-22
2021/04/28 07:18:49;;;;;;;13.93;8.90;;;;;;;14.85;57.07;99943.53;5046884;28;20067;-22
2021/04/28 07:21:14;;;;;;;13.00;8.70;;;;;;;15.09;57.16;99937.88;5047261;28;20029;-22
2021/04/28 07:23:40;;;;;;;15.63;8.75;;;;;;;15.46;56.07;99940.66;5047256;28;20844;-22
2021/04/28 07:26:08;;;;;;;16.48;9.80;;;;;;;15.78;54.97;99922.97;5046945;28;20047;-22
2021/04/28 07:28:33;;;;;;;15.52;9.13;;;;;;;15.71;54.38;99944.66;5045536;28;20092;-22
2021/04/28 07:30:59;;;;;;;11.93;7.90;;;;;;;15.61;54.34;99942.69;5046810;28;20025;-22
2021/04/28 07:33:24;;;;;;;14.07;8.70;;;;;;;15.76;55.39;99946.63;5047070;28;20108;-22
2021/04/28 07:35:50;;;;;;;14.02;8.07;;;;;;;15.52;53.55;99949.59;5046731;28;20095;-22
2021/04/28 07:38:15;;;;;;;13.70;7.88;;;;;;;15.76;53.28;99942.06;5046865;28;20041;-22
2021/04/28 07:40:40;;;;;;;12.23;7.80;;;;;;;15.84;53.51;99938.88;5046550;28;20059;-22
2021/04/28 07:43:06;;;;;;;11.90;8.10;;;;;;;15.68;54.80;99945.19;5046658;28;20033;-22
2021/04/28 07:45:34;;;;;;;11.63;8.00;;;;;;;15.98;52.99;99938.47;5046847;28;20029;-22
2021/04/28 07:48:02;;;;;;;14.52;8.88;;;;;;;15.77;54.22;99905.22;5046607;28;20037;-22
2021/04/28 07:50:28;;;;;;;11.93;8.00;;;;;;;16.44;51.91;99942.25;5046746;28;20057;-22
2021/04/28 07:52:53;;;;;;;11.65;7.28;;;;;;;15.90;54.24;99926.31;5046355;28;20033;-22
2021/04/28 07:55:19;;;;;;;14.48;8.50;;;;;;;16.24;54.82;99925.97;5046705;28;20039;-24
2021/04/28 07:57:44;;;;;;;12.10;7.78;;;;;;;16.82;52.33;99932.25;5046485;28;20037;-22
2021/04/28 08:00:10;;;;;;;14.00;8.30;;;;;;;16.94;51.89;99939.28;5046634;28;20067;-22
2021/04/28 08:02:36;;;;;;;13.77;7.78;;;;;;;17.14;50.10;99946.63;5046843;28;20025;-22
2021/04/28 08:05:01;;;;;;;13.18;7.82;;;;;;;16.95;50.70;99935.50;5046653;28;20039;-22
2021/04/28 08:07:27;;;;;;;15.07;7.70;;;;;;;17.36;51.52;99947.22;5046604;28;20036;-21
2021/04/28 08:09:52;;;;;;;9.07;6.40;;;;;;;16.87;50.24;99934.13;5046736;28;20837;-22
2021/04/28 08:12:18;;;;;;;10.77;7.20;;;;;;;16.94;50.69;99932.03;5046541;28;20048;-22
2021/04/28 08:14:43;;;;;;;11.75;7.60;;;;;;;16.80;51.46;99931.66;5046227;28;20067;-22
2021/04/28 08:17:10;;;;;;;11.27;7.22;;;;;;;16.89;52.17;99937.38;5046279;28;20437;-22
2021/04/28 08:19:36;;;;;;;12.50;6.43;;;;;;;17.81;49.33;99904.38;5046473;28;20041;-22
2021/04/28 08:22:01;;;;;;;14.02;6.88;;;;;;;17.66;49.30;99932.16;5046410;28;20021;-22
2021/04/28 08:24:26;;;;;;;12.90;6.90;;;;;;;17.90;49.98;99929.75;5046402;28;20513;-22
2021/04/28 08:26:52;;;;;;;10.40;6.03;;;;;;;17.54;48.87;99927.03;5048098;28;20036;-22
2021/04/28 08:29:17;;;;;;;11.55;6.82;;;;;;;17.56;48.26;99903.28;5050074;28;20033;-22
2021/04/28 08:31:43;;;;;;;9.45;6.05;;;;;;;17.93;48.50;99907.63;5049826;28;20033;-21
2021/04/28 08:34:08;;;;;;;12.25;6.35;;;;;;;17.62;48.98;99913.00;5050050;28;20405;-21
2021/04/28 08:36:34;;;;;;;10.60;5.82;;;;;;;17.80;48.93;99910.84;5049768;28;20024;-21
2021/04/28 08:39:00;;;;;;;10.90;6.05;;;;;;;18.11;48.62;99913.56;5049954;28;20887;-22
2021/04/28 08:41:26;;;;;;;15.43;6.22;;;;;;;18.62;47.45;99922.31;5049568;28;20025;-21
2021/04/28 08:43:51;;;;;;;11.85;5.88;;;;;;;18.64;46.42;99911.25;5049582;28;20512;-21
2021/04/28 08:46:16;;;;;;;10.65;5.93;;;;;;;18.77;46.41;99913.34;5050722;28;20533;-22
2021/04/28 08:48:42;;;;;;;9.35;5.88;;;;;;;18.52;45.68;99910.75;5048948;28;20478;-23
2021/04/28 08:51:07;;;;;;;11.00;5.88;;;;;;;17.91;47.51;99899.00;5049577;28;20039;-22
2021/04/28 08:53:33;;;;;;;13.13;5.53;;;;;;;18.21;47.71;99903.53;5049616;28;20041;-22
2021/04/28 08:56:06;;;;;;;13.10;6.75;;;;;;;18.57;46.82;99886.41;5049546;28;20021;-22
2021/04/28 08:58:33;;;;;;;11.07;5.50;;;;;;;18.94;45.79;99877.09;5049312;28;20064;-21
2021/04/28 09:00:58;;;;;;;11.80;5.65;;;;;;;18.79;46.13;99870.69;5049497;28;20135;-22
2021/04/28 09:03:48;;;;;;;11.90;5.63;;;;;;;19.14;45.81;99895.06;5049491;28;20028;-22
2021/04/28 09:06:29;;;;;;;11.93;5.43;;;;;;;19.21;46.71;99890.97;5049596;28;20396;-21
2021/04/28 09:08:55;;;;;;;6.88;4.60;;;;;;;19.38;43.92;99897.91;5048905;28;20025;-22
2021/04/28 09:11:36;;;;;;;10.75;5.28;;;;;;;19.49;45.19;99872.38;5049534;28;20025;-22
2021/04/28 09:14:11;;;;;;;12.90;5.57;;;;;;;19.51;43.80;99872.91;5049076;28;20452;-21
2021/04/28 09:16:44;;;;;;;9.20;4.38;;;;;;;19.49;40.66;99866.97;5048886;28;20079;-22
2021/04/28 09:19:24;;;;;;;12.52;6.53;;;;;;;19.85;42.39;99859.38;5049098;28;20713;-21
2021/04/28 09:21:53;;;;;;;9.25;4.88;;;;;;;20.26;42.93;99868.97;5048931;28;20112;-21
2021/04/28 09:24:34;;;;;;;9.30;5.63;;;;;;;20.47;41.57;99847.88;5048925;28;20039;-22
2021/04/28 09:27:00;;;;;;;10.48;5.72;;;;;;;20.10;41.16;99854.00;5048960;28;20032;-21
2021/04/28 09:29:30;;;;;;;12.00;6.25;;;;;;;20.44;41.13;99860.09;5048935;28;20086;-22
2021/04/28 09:31:59;;;;;;;9.43;4.80;;;;;;;20.59;41.69;99866.44;5048804;28;20035;-21
2021/04/28 09:34:29;;;;;;;8.85;4.63;;;;;;;20.32;41.68;99845.38;5048555;28;20067;-22
2021/04/28 09:37:06;;;;;;;6.97;4.38;;;;;;;20.45;43.54;99853.59;5048043;28;20112;-21
2021/04/28 09:39:36;;;;;;;8.80;4.90;;;;;;;20.51;41.55;99853.53;5048771;28;20044;-21
2021/04/28 09:42:02;;;;;;;9.27;4.97;;;;;;;20.50;41.51;99839.19;5047280;28;20112;-21
2021/04/28 09:44:34;;;;;;;10.68;6.32;;;;;;;20.84;40.03;99830.91;5030596;28;20037;-21
2021/04/28 09:47:14;;;;;;;14.23;7.07;;;;;;;20.88;40.74;99847.34;5048262;28;20273;-21
2021/04/28 09:50:00;;;;;;;16.17;7.90;;;;;;;20.94;40.49;99839.97;5048121;28;20130;-21
2021/04/28 09:52:28;;;;;;;9.40;5.15;;;;;;;20.65;40.42;99835.50;5048571;28;20048;-22
2021/04/28 09:54:54;;;;;;;8.98;4.63;;;;;;;20.80;42.37;99835.28;5048316;28;20037;-20
2021/04/28 09:57:53;;;;;;;8.93;4.47;;;;;;;21.03;39.87;99840.94;5048372;28;20063;-22
2021/04/28 10:00:28;;;;;;;8.25;4.47;;;;;;;21.11;40.01;99834.84;5047880;28;20048;-21
2021/04/28 10:02:57;;;;;;;12.48;6.22;;;;;;;21.37;40.02;99831.72;5047825;28;20078;-22
2021/04/28 10:05:25;;;;;;;9.95;4.30;;;;;;;21.52;39.31;99833.41;5048223;28;20127;-21
2021/04/28 10:08:10;;;;;;;7.57;4.20;;;;;;;21.74;39.26;99840.88;5047965;28;20505;-21
2021/04/28 10:10:36;;;;;;;7.63;4.10;;;;;;;21.98;38.54;99833.38;5047786;28;20543;-21
2021/04/28 10:13:02;;;;;;;9.98;4.78;;;;;;;22.00;39.16;99817.59;5048039;28;20025;-21
2021/04/28 10:15:28;;;;;;;8.20;4.72;;;;;;;22.08;38.76;99825.03;5047729;28;20053;-21
2021/04/28 10:17:53;;;;;;;6.57;4.40;;;;;;;21.49;38.19;99813.09;5047687;28;20075;-21
2021/04/28 10:20:19;;;;;;;7.43;4.28;;;;;;;21.97;37.12;99812.78;5030208;28;20064;-21
2021/04/28 10:22:44;;;;;;;10.75;5.60;;;;;;;22.65;37.79;99815.75;5046320;28;20029;-22
2021/04/28 10:25:10;;;;;;;8.30;4.85;;;;;;;23.15;36.26;99813.00;5030000;28;20048;-21
2021/04/28 10:27:37;;;;;;;11.55;5.30;;;;;;;22.77;36.80;99813.31;5046312;28;20025;-21
2021/04/28 10:30:03;;;;;;;8.03;4.63;;;;;;;22.24;37.16;99800.31;5046645;28;20060;-21
2021/04/28 10:32:29;;;;;;;9.55;5.07;;;;;;;22.23;38.55;99806.81;5046188;28;20311;-21
2021/04/28 10:35:00;;;;;;;7.40;4.85;;;;;;;22.30;37.57;99804.53;5029611;28;20029;-21
2021/04/28 10:37:27;;;;;;;11.75;5.38;;;;;;;22.40;38.45;99788.03;5030597;28;20047;-21
2021/04/28 10:39:53;;;;;;;8.52;5.45;;;;;;;22.68;37.64;99798.84;5029892;28;20025;-21
2021/04/28 10:42:36;;;;;;;6.43;4.53;;;;;;;23.24;36.45;99792.09;5047511;28;20038;-21
2021/04/28 10:45:26;;;;;;;7.38;4.53;;;;;;;22.46;37.04;99786.81;5047315;28;20596;-24
2021/04/28 10:47:52;;;;;;;10.95;5.43;;;;;;;22.52;38.54;99781.28;5047375;28;20025;-21
2021/04/28 10:50:24;;;;;;;7.95;4.50;;;;;;;22.77;38.15;99790.75;5046677;28;20056;-21
2021/04/28 10:53:28;;;;;;;7.85;4.82;;;;;;;22.39;39.14;99791.03;5047501;28;20870;-21
2021/04/28 10:56:13;;;;;;;8.20;4.97;;;;;;;23.07;38.54;99783.84;5045808;28;20041;-21
2021/04/28 10:58:42;;;;;;;7.88;5.07;;;;;;;23.30;36.09;99781.09;5047172;28;20029;-21
2021/04/28 11:01:27;;;;;;;8.82;4.80;;;;;;;23.60;36.34;99774.03;5047128;28;20596;-21
2021/04/28 11:03:57;;;;;;;10.02;5.60;;;;;;;23.99;36.17;99781.47;5047166;28;20025;-21
2021/04/28 11:06:23;;;;;;;7.95;4.85;;;;;;;23.17;37.67;99778.16;5047179;28;20033;-21
2021/04/28 11:08:59;;;;;;;9.35;5.43;;;;;;;23.73;36.16;99791.41;5047153;28;20029;-21
2021/04/28 11:14:08;;;;;;;9.18;5.15;;;;;;;23.77;36.26;99787.78;5046877;28;20408;-21
2021/04/28 11:16:37;;;;;;;11.15;5.57;;;;;;;23.44;36.34;99777.19;5046995;28;20056;-22
2021/04/28 11:19:15;;;;;;;14.63;6.97;;;;;;;23.52;36.50;99772.91;5047335;28;20463;-22
2021/04/28 11:21:40;;;;;;;10.50;5.45;;;;;;;23.77;36.42;99767.91;5047220;28;20033;-22
2021/04/28 11:24:09;;;;;;;9.90;5.63;;;;;;;24.26;37.06;99763.25;5046923;28;20044;-22